Shoshone, California Weather observations

Data are for observation ending at time listed.
 Day   Time    Ave.   Ave.  Ave.  Vector   Max.   Stn.    Total    Solar   Ave.  
  of    of     Air    Rel.  Wind   Wind    Wind   Baro.  Precip.   Rad.    Soil  
Year   Day     Temp.  Hum.  Speed  Dir.    Gust   Pres.                    Temp. 
2016   (PST)    F      %     mph   deg.    mph     mb.     in.     W/m2     F   
------------------------------------------------------------------------------
 344   22:00   42.1    37    0.3   109      2.3    976     0.00       1    52.0
 344   23:00   39.2    41    1.1    22      3.9    976     0.00       0    51.2
 345    0:00   38.2    42    0.5    78      4.1    976     0.00       0    50.4
 345    1:00   35.1    48    0.6   320      2.9    975     0.00       0    49.6
 345    2:00   34.8    50    0.4    32      2.8    975     0.00       0    48.9
 345    3:00   34.2    51    0.2    29      2.6    975     0.00       0    48.3
 345    4:00   33.9    54    0.6     7      3.5    974     0.00       0    47.8
 345    5:00   33.6    53    1.0   342      2.8    974     0.00       0    47.3
 345    6:00   33.2    54    0.4   323      2.4    973     0.00       0    46.9
 345    7:00   32.6    55    0.7    41      3.5    973     0.00       4    46.5
 345    8:00   33.6    54    0.8   339      3.2    974     0.00      65    46.0
 345    9:00   40.1    41    0.5   122      2.7    974     0.00     151    46.0
 345   10:00   47.2    32    1.6     4      4.7    974     0.00     346    46.5
 345   11:00   51.2    30    1.4   260      4.7    973     0.00     383    48.1
 345   12:00   57.3    25    1.3   251      4.4    972     0.00     525    50.8
 345   13:00   60.5    24    1.8   112      5.5    971     0.00     493    53.9
 345   14:00   62.2    24    2.5   177      8.6    970     0.00     387    56.3
 345   15:00   61.8    23    3.0   155      8.8    969     0.00     231    57.6
 345   16:00   60.3    22    4.6   157      9.1    968     0.00     160    57.8
 345   17:00   56.0    26    1.5   156      5.6    968     0.00      10    57.3
 345   18:00   53.7    28    0.8    94      3.7    968     0.00       1    56.3
 345   19:00   51.5    29    1.5    96      6.1    968     0.00       1    55.3
 345   20:00   50.1    30    1.1   100      5.0    968     0.00       1    54.4
 345   21:00   50.4    27    2.3   151      7.8    968     0.00       1    53.7

Return to Shoshone, California graphs page.


Western Regional Climate Center,wrcc@dri.edu